createdAt,value
2022-12-03T00:00:21.969Z,101381.44
2022-12-03T00:02:48.948Z,101385.91
2022-12-03T00:05:15.792Z,101377.94
2022-12-03T00:07:42.573Z,101382.28
2022-12-03T00:10:10.333Z,101378.91
2022-12-03T00:12:37.157Z,101375.28
2022-12-03T00:15:05.876Z,101391.06
2022-12-03T00:17:32.951Z,101382.22
2022-12-03T00:19:59.740Z,101391.78
2022-12-03T00:22:26.487Z,101382.19
2022-12-03T00:24:53.582Z,101394.38
2022-12-03T00:27:20.633Z,101399.66
2022-12-03T00:29:47.419Z,101400.56
2022-12-03T00:32:14.284Z,101398.78
2022-12-03T00:34:41.046Z,101394.38
2022-12-03T00:37:07.818Z,101396.13
2022-12-03T00:39:34.654Z,101394.41
2022-12-03T00:42:01.460Z,101402.34
2022-12-03T00:44:28.310Z,101394.44
2022-12-03T00:46:55.178Z,101390.84
2022-12-03T00:49:21.959Z,101405.78
2022-12-03T00:51:48.778Z,101400.50
2022-12-03T00:54:15.562Z,101410.75
2022-12-03T00:56:42.408Z,101402.22
2022-12-03T00:59:09.289Z,101404.88
2022-12-03T01:01:36.197Z,101406.59
2022-12-03T01:04:03.254Z,101400.41
2022-12-03T01:06:29.954Z,101400.56
2022-12-03T01:08:56.801Z,101398.00
2022-12-03T01:11:38.619Z,101408.50
2022-12-03T01:14:11.449Z,101412.00
2022-12-03T01:16:39.177Z,101408.34
2022-12-03T01:19:10.513Z,101405.75
2022-12-03T01:21:37.981Z,101396.00
2022-12-03T01:24:05.324Z,101404.13
2022-12-03T01:26:32.111Z,101406.53
2022-12-03T01:28:59.669Z,101411.94
2022-12-03T01:31:45.261Z,101408.38
2022-12-03T01:34:12.115Z,101408.34
2022-12-03T01:36:38.970Z,101404.09
2022-12-03T01:39:05.770Z,101403.13
2022-12-03T01:41:34.041Z,101404.03
2022-12-03T01:44:01.917Z,101408.38
2022-12-03T01:46:37.699Z,101412.75
2022-12-03T01:49:05.247Z,101405.84
2022-12-03T01:51:32.135Z,101406.78
2022-12-03T01:54:00.824Z,101406.84
2022-12-03T01:56:28.141Z,101408.56
2022-12-03T01:58:55.629Z,101407.53
2022-12-03T02:01:22.578Z,101415.44
2022-12-03T02:03:50.025Z,101413.75
2022-12-03T02:06:19.480Z,101415.38
2022-12-03T02:08:47.594Z,101419.78
2022-12-03T02:11:33.227Z,101413.66
2022-12-03T02:14:03.433Z,101406.72
2022-12-03T02:16:30.846Z,101404.00
2022-12-03T02:18:58.561Z,101414.56
2022-12-03T02:21:59.963Z,101413.66
2022-12-03T02:24:29.672Z,101410.22
2022-12-03T02:26:56.575Z,101400.50
2022-12-03T02:29:24.281Z,101408.28
2022-12-03T02:31:51.178Z,101408.34
2022-12-03T02:34:38.093Z,101389.59
2022-12-03T02:37:06.844Z,101415.34
2022-12-03T02:39:37.556Z,101413.59
2022-12-03T02:42:24.265Z,101410.25
2022-12-03T02:44:52.104Z,101411.09
2022-12-03T02:47:20.601Z,101409.25
2022-12-03T02:49:47.790Z,101411.88
2022-12-03T02:52:15.190Z,101408.38
2022-12-03T02:54:42.163Z,101413.59
2022-12-03T02:57:09.078Z,101408.38
2022-12-03T02:59:36.109Z,101401.41
2022-12-03T03:02:03.366Z,101411.88
2022-12-03T03:04:30.455Z,101411.03
2022-12-03T03:06:57.405Z,101412.75
2022-12-03T03:09:24.663Z,101411.94
2022-12-03T03:11:51.570Z,101416.09
2022-12-03T03:14:18.526Z,101385.44
2022-12-03T03:16:45.397Z,101400.50
2022-12-03T03:19:12.415Z,101404.97
2022-12-03T03:21:39.144Z,101405.78
2022-12-03T03:24:06.188Z,101398.94
2022-12-03T03:26:32.995Z,101403.37
2022-12-03T03:29:00.639Z,101396.37
2022-12-03T03:31:29.723Z,101400.63
2022-12-03T03:33:56.662Z,101405.84
2022-12-03T03:36:24.683Z,101400.75
2022-12-03T03:38:52.143Z,101409.59
2022-12-03T03:41:20.824Z,101404.31
2022-12-03T03:43:49.926Z,101407.72
2022-12-03T03:46:18.256Z,101406.84
2022-12-03T03:48:45.520Z,101413.06
2022-12-03T03:51:13.153Z,101405.25
2022-12-03T03:53:43.005Z,101407.94
2022-12-03T03:56:10.912Z,101397.38
2022-12-03T03:58:37.968Z,101407.03
2022-12-03T04:01:05.342Z,101407.84
2022-12-03T04:03:32.116Z,101400.81
2022-12-03T04:05:58.832Z,101411.00
2022-12-03T04:08:25.739Z,101405.09
2022-12-03T04:11:10.886Z,101402.53
2022-12-03T04:13:37.674Z,101402.53
2022-12-03T04:16:04.720Z,101406.97
2022-12-03T04:18:43.601Z,101399.97
2022-12-03T04:21:35.041Z,101407.13
2022-12-03T04:24:02.078Z,101410.69
2022-12-03T04:26:47.153Z,101403.72
2022-12-03T04:29:14.000Z,101412.34
2022-12-03T04:32:00.495Z,101408.84
2022-12-03T04:34:45.596Z,101407.19
2022-12-03T04:37:12.369Z,101409.72
2022-12-03T04:39:39.540Z,101412.34
2022-12-03T04:42:06.708Z,101404.34
2022-12-03T04:44:33.986Z,101400.97
2022-12-03T04:47:11.855Z,101407.19
2022-12-03T04:49:41.941Z,101402.84
2022-12-03T04:52:09.855Z,101409.97
2022-12-03T04:54:37.826Z,101400.31
2022-12-03T04:57:05.742Z,101408.16
2022-12-03T04:59:33.073Z,101406.37
2022-12-03T05:01:59.856Z,101399.19
2022-12-03T05:04:27.026Z,101401.12
2022-12-03T05:06:53.831Z,101409.97
2022-12-03T05:09:20.703Z,101408.19
2022-12-03T05:11:47.552Z,101420.44
2022-12-03T05:14:14.570Z,101423.87
2022-12-03T05:16:41.362Z,101421.28
2022-12-03T05:19:09.977Z,101427.38
2022-12-03T05:21:36.787Z,101433.50
2022-12-03T05:24:03.875Z,101427.28
2022-12-03T05:26:30.629Z,101430.75
2022-12-03T05:28:57.503Z,101421.09
2022-12-03T05:31:24.294Z,101430.03
2022-12-03T05:33:51.299Z,101422.06
2022-12-03T05:36:18.166Z,101423.78
2022-12-03T05:38:45.961Z,101424.69
2022-12-03T05:41:31.175Z,101426.50
2022-12-03T05:43:57.994Z,101430.03
2022-12-03T05:46:24.761Z,101428.22
2022-12-03T05:48:51.493Z,101427.25
2022-12-03T05:51:18.263Z,101419.41
2022-12-03T05:53:45.070Z,101426.16
2022-12-03T05:56:11.814Z,101407.50
2022-12-03T05:58:38.575Z,101427.03
2022-12-03T06:01:05.452Z,101423.63
2022-12-03T06:03:32.431Z,101423.69
2022-12-03T06:05:59.427Z,101435.44
2022-12-03T06:08:26.418Z,101435.78
2022-12-03T06:10:53.267Z,101441.22
2022-12-03T06:13:20.108Z,101438.59
2022-12-03T06:15:47.027Z,101437.75
2022-12-03T06:18:14.140Z,101443.87
2022-12-03T06:20:40.982Z,101442.19
2022-12-03T06:23:07.728Z,101449.31
2022-12-03T06:25:34.543Z,101452.78
2022-12-03T06:28:01.654Z,101456.31
2022-12-03T06:30:28.520Z,101451.16
2022-12-03T06:32:55.362Z,101443.34
2022-12-03T06:35:22.198Z,101436.44
2022-12-03T06:37:48.998Z,101445.00
2022-12-03T06:40:16.855Z,101447.56
2022-12-03T06:42:43.766Z,101444.22
2022-12-03T06:45:11.317Z,101441.69
2022-12-03T06:47:38.448Z,101441.69
2022-12-03T06:50:06.911Z,101436.56
2022-12-03T06:52:33.677Z,101440.81
2022-12-03T06:55:00.718Z,101448.59
2022-12-03T06:57:27.760Z,101452.94
2022-12-03T06:59:54.745Z,101450.19
2022-12-03T07:02:22.004Z,101449.44
2022-12-03T07:04:48.710Z,101457.44
2022-12-03T07:07:15.482Z,101453.09
2022-12-03T07:09:42.223Z,101454.81
2022-12-03T07:12:09.084Z,101468.13
2022-12-03T07:14:35.853Z,101469.09
2022-12-03T07:17:02.622Z,101462.91
2022-12-03T07:19:32.848Z,101465.69
2022-12-03T07:22:00.413Z,101464.09
2022-12-03T07:24:27.583Z,101453.81
2022-12-03T07:26:54.987Z,101459.06
2022-12-03T07:29:22.154Z,101450.25
2022-12-03T07:31:48.983Z,101453.09
2022-12-03T07:34:16.094Z,101461.94
2022-12-03T07:36:42.895Z,101460.09
2022-12-03T07:39:09.815Z,101459.19
2022-12-03T07:41:36.598Z,101455.81
2022-12-03T07:44:05.581Z,101453.22
2022-12-03T07:46:36.013Z,101452.53
2022-12-03T07:49:03.617Z,101453.16
2022-12-03T07:51:32.330Z,101460.28
2022-12-03T07:53:59.483Z,101456.97
2022-12-03T07:56:26.431Z,101457.88
2022-12-03T07:58:53.275Z,101450.13
2022-12-03T08:01:20.157Z,101458.78
2022-12-03T08:03:47.163Z,101467.59
2022-12-03T08:06:14.069Z,101468.50
2022-12-03T08:08:40.861Z,101466.06
2022-12-03T08:11:12.884Z,101466.03
2022-12-03T08:13:40.226Z,101473.75
2022-12-03T08:16:25.774Z,101474.50
2022-12-03T08:18:54.525Z,101473.41
2022-12-03T08:21:22.003Z,101479.62
2022-12-03T08:23:49.077Z,101482.09
2022-12-03T08:26:21.655Z,101478.63
2022-12-03T08:28:48.690Z,101476.97
2022-12-03T08:31:32.254Z,101478.94
2022-12-03T08:34:15.369Z,101455.16
2022-12-03T08:36:42.311Z,101476.41
2022-12-03T08:39:18.224Z,101480.13
2022-12-03T08:42:05.950Z,101484.59
2022-12-03T08:44:40.978Z,101478.53
2022-12-03T08:47:16.623Z,101470.00
2022-12-03T08:49:47.725Z,101468.41
2022-12-03T08:52:23.439Z,101466.81
2022-12-03T08:54:54.284Z,101471.37
2022-12-03T08:57:30.355Z,101483.78
2022-12-03T09:00:13.565Z,101477.91
2022-12-03T09:02:47.870Z,101472.78
2022-12-03T09:05:23.718Z,101461.41
2022-12-03T09:07:50.620Z,101467.22
2022-12-03T09:10:18.738Z,101471.97
2022-12-03T09:12:45.469Z,101473.50
2022-12-03T09:15:12.316Z,101466.63
2022-12-03T09:17:39.196Z,101468.81
2022-12-03T09:20:07.150Z,101450.19
2022-12-03T09:22:34.157Z,101466.78
2022-12-03T09:25:00.960Z,101452.34
2022-12-03T09:27:27.751Z,101461.25
2022-12-03T09:29:54.610Z,101455.25
2022-12-03T09:32:21.558Z,101458.06
2022-12-03T09:34:48.428Z,101454.88
2022-12-03T09:37:15.222Z,101466.91
2022-12-03T09:39:42.078Z,101460.13
2022-12-03T09:42:10.423Z,101458.91
2022-12-03T09:44:38.261Z,101448.78
2022-12-03T09:47:05.820Z,101447.84
2022-12-03T09:49:35.788Z,101445.31
2022-12-03T09:52:05.293Z,101439.88
2022-12-03T09:54:33.228Z,101435.12
2022-12-03T09:57:04.271Z,101435.75
2022-12-03T09:59:34.740Z,101440.28
2022-12-03T10:02:03.328Z,101442.66
2022-12-03T10:04:30.479Z,101427.50
2022-12-03T10:06:59.032Z,101428.75
2022-12-03T10:09:28.800Z,101425.41
2022-12-03T10:11:59.914Z,101430.75
2022-12-03T10:14:27.782Z,101420.59
2022-12-03T10:16:55.331Z,101420.66
2022-12-03T10:19:26.112Z,101416.31
2022-12-03T10:21:52.968Z,101419.72
2022-12-03T10:24:22.816Z,101421.59
2022-12-03T10:26:51.742Z,101419.84
2022-12-03T10:29:22.252Z,101415.22
2022-12-03T10:32:01.884Z,101419.09
2022-12-03T10:34:34.373Z,101410.78
2022-12-03T10:37:19.223Z,101402.28
2022-12-03T10:40:09.327Z,101409.59
2022-12-03T10:42:39.098Z,101402.13
2022-12-03T10:45:19.514Z,101404.03
2022-12-03T10:48:11.415Z,101404.69
2022-12-03T10:50:46.147Z,101392.81
2022-12-03T10:53:13.203Z,101389.75
2022-12-03T10:55:42.107Z,101370.66
2022-12-03T10:58:17.097Z,101377.94
2022-12-03T11:00:43.957Z,101380.31
2022-12-03T11:03:28.576Z,101380.16
2022-12-03T11:05:57.142Z,101371.63
2022-12-03T11:08:26.900Z,101370.56
2022-12-03T11:11:18.290Z,101362.50
2022-12-03T11:13:49.542Z,101366.22
2022-12-03T11:16:39.257Z,101361.66
2022-12-03T11:19:37.736Z,101365.59
2022-12-03T11:22:04.889Z,101364.38
2022-12-03T11:24:36.672Z,101359.16
2022-12-03T11:27:03.377Z,101355.66
2022-12-03T11:30:14.907Z,101356.53
2022-12-03T11:32:44.387Z,101353.97
2022-12-03T11:35:37.895Z,101356.78
2022-12-03T11:38:40.868Z,101344.28
2022-12-03T11:41:08.694Z,101337.44
2022-12-03T11:44:24.550Z,101346.16
2022-12-03T11:46:51.567Z,101346.22
2022-12-03T11:49:34.641Z,101340.94
2022-12-03T11:52:11.880Z,101346.19
2022-12-03T11:54:38.730Z,101338.09
2022-12-03T11:57:26.844Z,101329.50
2022-12-03T11:59:58.726Z,101323.62
2022-12-03T12:02:25.763Z,101324.50
2022-12-03T12:04:52.604Z,101326.28
2022-12-03T12:07:37.324Z,101327.78
2022-12-03T12:10:05.539Z,101313.56
2022-12-03T12:12:39.785Z,101318.88
2022-12-03T12:15:33.038Z,101326.09
2022-12-03T12:18:36.922Z,101295.38
2022-12-03T12:21:55.170Z,101319.13
2022-12-03T12:24:40.640Z,101307.69
2022-12-03T12:27:15.517Z,101297.13
2022-12-03T12:29:45.822Z,101297.03
2022-12-03T12:32:15.871Z,101295.06
2022-12-03T12:34:45.691Z,101295.91
2022-12-03T12:37:27.085Z,101298.31
2022-12-03T12:39:57.032Z,101296.62
2022-12-03T12:42:33.135Z,101291.44
2022-12-03T12:45:13.816Z,101291.81
2022-12-03T12:47:48.040Z,101295.34
2022-12-03T12:50:17.064Z,101284.78
2022-12-03T12:52:50.450Z,101281.19
2022-12-03T12:55:17.871Z,101287.25
2022-12-03T12:57:44.874Z,101280.91
2022-12-03T13:00:21.608Z,101281.06
2022-12-03T13:03:03.010Z,101278.03
2022-12-03T13:05:38.133Z,101278.94
2022-12-03T13:08:24.119Z,101267.47
2022-12-03T13:10:53.528Z,101280.63
2022-12-03T13:13:26.448Z,101272.66
2022-12-03T13:16:02.494Z,101277.16
2022-12-03T13:18:53.115Z,101273.63
2022-12-03T13:21:24.301Z,101280.75
2022-12-03T13:23:54.175Z,101287.84
2022-12-03T13:26:38.084Z,101287.75
2022-12-03T13:29:12.229Z,101276.19
2022-12-03T13:31:43.452Z,101271.69
2022-12-03T13:34:21.544Z,101281.31
2022-12-03T13:36:55.491Z,101275.94
2022-12-03T13:39:27.801Z,101275.88
2022-12-03T13:42:14.011Z,101273.97
2022-12-03T13:44:49.433Z,101281.00
2022-12-03T13:47:20.689Z,101279.84
2022-12-03T13:50:03.404Z,101282.22
2022-12-03T13:52:32.850Z,101287.50
2022-12-03T13:55:04.261Z,101290.87
2022-12-03T13:57:31.019Z,101298.78
2022-12-03T13:59:57.738Z,101295.19
2022-12-03T14:02:24.739Z,101296.06
2022-12-03T14:04:55.448Z,101296.09
2022-12-03T14:07:26.753Z,101300.41
2022-12-03T14:09:53.898Z,101298.66
2022-12-03T14:12:27.072Z,101303.09
2022-12-03T14:14:54.358Z,101301.34
2022-12-03T14:17:21.215Z,101300.41
2022-12-03T14:19:48.264Z,101305.78
2022-12-03T14:22:15.034Z,101304.94
2022-12-03T14:24:41.886Z,101307.66
2022-12-03T14:27:08.570Z,101303.22
2022-12-03T14:29:35.580Z,101311.09
2022-12-03T14:32:02.410Z,101303.09
2022-12-03T14:34:29.182Z,101297.87
2022-12-03T14:36:55.989Z,101304.91
2022-12-03T14:39:22.829Z,101308.50
2022-12-03T14:42:08.536Z,101311.84
2022-12-03T14:44:35.345Z,101309.16
2022-12-03T14:47:02.194Z,101310.94
2022-12-03T14:49:29.054Z,101316.97
2022-12-03T14:51:55.976Z,101307.28
2022-12-03T14:54:25.948Z,101309.97
2022-12-03T14:56:52.918Z,101301.16
2022-12-03T14:59:24.384Z,101304.69
2022-12-03T15:01:54.451Z,101310.81
2022-12-03T15:04:21.523Z,101296.62
2022-12-03T15:06:48.369Z,101312.53
2022-12-03T15:09:15.282Z,101310.72
2022-12-03T15:11:46.134Z,101315.97
2022-12-03T15:14:13.565Z,101317.69
2022-12-03T15:16:40.530Z,101319.38
2022-12-03T15:19:08.728Z,101323.72
2022-12-03T15:21:35.686Z,101319.34
2022-12-03T15:24:03.130Z,101319.22
2022-12-03T15:26:30.147Z,101313.03
2022-12-03T15:28:57.193Z,101324.38
2022-12-03T15:31:23.989Z,101312.88
2022-12-03T15:33:50.897Z,101311.87
2022-12-03T15:36:17.810Z,101310.03
2022-12-03T15:38:46.127Z,101314.38
2022-12-03T15:41:24.368Z,101317.69
2022-12-03T15:43:53.111Z,101315.00
2022-12-03T15:46:20.951Z,101309.66
2022-12-03T15:48:48.982Z,101313.06
2022-12-03T15:51:16.534Z,101322.59
2022-12-03T15:53:43.491Z,101322.56
2022-12-03T15:56:12.058Z,101316.34
2022-12-03T15:58:39.974Z,101323.22
2022-12-03T16:01:08.793Z,101320.38
2022-12-03T16:03:36.977Z,101314.03
2022-12-03T16:06:04.195Z,101309.56
2022-12-03T16:08:31.101Z,101317.41
2022-12-03T16:10:57.964Z,101312.00
2022-12-03T16:13:24.720Z,101317.12
2022-12-03T16:15:51.869Z,101313.47
2022-12-03T16:18:18.689Z,101312.47
2022-12-03T16:20:45.795Z,101317.69
2022-12-03T16:23:12.552Z,101309.53
2022-12-03T16:25:39.305Z,101318.28
2022-12-03T16:28:06.568Z,101313.81
2022-12-03T16:30:33.648Z,101314.56
2022-12-03T16:33:00.510Z,101320.53
2022-12-03T16:35:27.313Z,101315.25
2022-12-03T16:37:54.124Z,101324.69
2022-12-03T16:40:21.235Z,101318.53
2022-12-03T16:42:48.031Z,101322.75
2022-12-03T16:45:30.216Z,101321.78
2022-12-03T16:47:57.113Z,101320.84
2022-12-03T16:50:29.427Z,101325.13
2022-12-03T16:52:57.493Z,101327.66
2022-12-03T16:55:24.683Z,101320.47
2022-12-03T16:57:51.665Z,101315.94
2022-12-03T17:00:22.058Z,101318.41
2022-12-03T17:02:49.014Z,101319.19
2022-12-03T17:05:16.039Z,101321.81
2022-12-03T17:07:42.965Z,101326.94
2022-12-03T17:10:10.664Z,101321.44
2022-12-03T17:13:07.590Z,101317.50
2022-12-03T17:15:26.879Z,101336.03
2022-12-03T17:17:54.101Z,101342.13
2022-12-03T17:20:21.059Z,101339.34
2022-12-03T17:22:48.116Z,101339.38
2022-12-03T17:25:15.097Z,101342.84
2022-12-03T17:27:45.417Z,101338.41
2022-12-03T17:30:13.250Z,101337.63
2022-12-03T17:32:40.740Z,101350.03
2022-12-03T17:35:08.578Z,101336.34
2022-12-03T17:37:36.523Z,101338.97
2022-12-03T17:40:06.691Z,101332.69
2022-12-03T17:42:33.634Z,101341.44
2022-12-03T17:45:00.368Z,101333.44
2022-12-03T17:47:27.703Z,101333.31
2022-12-03T17:49:55.379Z,101333.06
2022-12-03T17:52:22.845Z,101343.53
2022-12-03T17:55:10.051Z,101344.28
2022-12-03T17:57:37.140Z,101342.31
2022-12-03T18:00:04.504Z,101339.66
2022-12-03T18:02:31.566Z,101344.66
2022-12-03T18:04:58.795Z,101341.03
2022-12-03T18:07:25.825Z,101337.47
2022-12-03T18:09:53.378Z,101343.59
2022-12-03T18:12:20.421Z,101346.84
2022-12-03T18:14:47.229Z,101348.50
2022-12-03T18:17:14.823Z,101341.41
2022-12-03T18:19:42.124Z,101346.75
2022-12-03T18:22:09.223Z,101351.97
2022-12-03T18:24:36.049Z,101334.31
2022-12-03T18:27:02.869Z,101339.56
2022-12-03T18:29:29.722Z,101339.63
2022-12-03T18:31:56.740Z,101336.03
2022-12-03T18:34:23.537Z,101331.59
2022-12-03T18:36:50.663Z,101334.97
2022-12-03T18:39:27.347Z,101331.38
2022-12-03T18:41:54.546Z,101334.75
2022-12-03T18:44:21.576Z,101330.31
2022-12-03T18:46:55.663Z,101342.31
2022-12-03T18:49:22.787Z,101328.09
2022-12-03T18:51:54.459Z,101344.56
2022-12-03T18:54:22.773Z,101333.09
2022-12-03T18:56:49.581Z,101333.91
2022-12-03T18:59:16.716Z,101326.88
2022-12-03T19:01:44.018Z,101335.37
2022-12-03T19:04:11.222Z,101332.03
2022-12-03T19:06:38.315Z,101329.38
2022-12-03T19:09:05.370Z,101337.25
2022-12-03T19:11:34.513Z,101335.84
2022-12-03T19:14:03.332Z,101332.25
2022-12-03T19:16:30.815Z,101336.72
2022-12-03T19:18:57.944Z,101331.47
2022-12-03T19:21:27.351Z,101343.72
2022-12-03T19:24:23.884Z,101340.12
2022-12-03T19:26:45.998Z,101339.44
2022-12-03T19:29:13.306Z,101336.28
2022-12-03T19:31:40.629Z,101343.88
2022-12-03T19:34:08.068Z,101340.12
2022-12-03T19:36:35.352Z,101331.28
2022-12-03T19:39:02.781Z,101343.66
2022-12-03T19:41:33.026Z,101344.47
2022-12-03T19:44:00.389Z,101345.13
2022-12-03T19:46:32.242Z,101348.63
2022-12-03T19:48:59.991Z,101355.53
2022-12-03T19:51:35.339Z,101350.00
2022-12-03T19:54:07.933Z,101356.16
2022-12-03T19:56:35.289Z,101353.44
2022-12-03T19:59:03.380Z,101348.13
2022-12-03T20:01:34.061Z,101349.75
2022-12-03T20:04:03.651Z,101360.00
2022-12-03T20:06:33.696Z,101358.72
2022-12-03T20:09:04.559Z,101359.47
2022-12-03T20:11:33.687Z,101361.03
2022-12-03T20:14:04.431Z,101367.31
2022-12-03T20:16:39.809Z,101365.53
2022-12-03T20:19:08.270Z,101369.94
2022-12-03T20:21:37.438Z,101368.19
2022-12-03T20:24:07.031Z,101367.25
2022-12-03T20:26:34.881Z,101373.44
2022-12-03T20:29:05.253Z,101369.81
2022-12-03T20:31:32.882Z,101367.88
2022-12-03T20:34:03.021Z,101366.88
2022-12-03T20:36:32.020Z,101367.06
2022-12-03T20:39:01.665Z,101364.44
2022-12-03T20:41:29.870Z,101358.97
2022-12-03T20:43:57.254Z,101353.72
2022-12-03T20:46:29.594Z,101360.72
2022-12-03T20:48:58.286Z,101369.50
2022-12-03T20:51:29.436Z,101363.31
2022-12-03T20:53:58.348Z,101365.59
2022-12-03T20:56:31.648Z,101361.09
2022-12-03T20:59:07.087Z,101362.03
2022-12-03T21:01:36.442Z,101370.84
2022-12-03T21:04:05.029Z,101370.81
2022-12-03T21:06:34.558Z,101367.09
2022-12-03T21:09:02.135Z,101375.06
2022-12-03T21:11:30.902Z,101380.13
2022-12-03T21:13:59.110Z,101370.53
2022-12-03T21:16:59.205Z,101368.91
2022-12-03T21:19:18.233Z,101371.41
2022-12-03T21:21:45.172Z,101365.34
2022-12-03T21:24:13.029Z,101363.56
2022-12-03T21:26:40.555Z,101354.72
2022-12-03T21:29:09.057Z,101360.88
2022-12-03T21:31:38.706Z,101360.56
2022-12-03T21:34:05.787Z,101358.25
2022-12-03T21:36:32.876Z,101356.47
2022-12-03T21:39:00.262Z,101356.53
2022-12-03T21:41:27.470Z,101359.25
2022-12-03T21:43:54.256Z,101361.88
2022-12-03T21:47:10.205Z,101356.59
2022-12-03T21:49:08.532Z,101345.03
2022-12-03T21:51:36.548Z,101360.94
2022-12-03T21:54:04.999Z,101353.84
2022-12-03T21:56:33.078Z,101345.78
2022-12-03T21:59:02.313Z,101349.38
2022-12-03T22:01:29.306Z,101352.00
2022-12-03T22:04:04.698Z,101343.16
2022-12-03T22:06:31.454Z,101356.28
2022-12-03T22:08:59.163Z,101343.03
2022-12-03T22:11:26.019Z,101343.13
2022-12-03T22:13:54.504Z,101342.06
2022-12-03T22:16:21.754Z,101341.94
2022-12-03T22:18:49.341Z,101338.53
2022-12-03T22:21:18.977Z,101341.22
2022-12-03T22:23:46.405Z,101341.94
2022-12-03T22:26:15.510Z,101337.78
2022-12-03T22:28:44.052Z,101334.38
2022-12-03T22:31:12.171Z,101333.56
2022-12-03T22:33:39.498Z,101334.44
2022-12-03T22:36:14.645Z,101330.75
2022-12-03T22:38:45.166Z,101325.75
2022-12-03T22:41:13.753Z,101323.25
2022-12-03T22:43:40.746Z,101322.31
2022-12-03T22:46:12.402Z,101318.91
2022-12-03T22:48:41.264Z,101317.41
2022-12-03T22:51:14.344Z,101317.50
2022-12-03T22:53:41.251Z,101317.53
2022-12-03T22:56:08.415Z,101314.16
2022-12-03T22:58:37.733Z,101314.25
2022-12-03T23:01:04.681Z,101303.69
2022-12-03T23:03:31.519Z,101316.88
2022-12-03T23:05:58.376Z,101310.41
2022-12-03T23:08:25.176Z,101315.66
2022-12-03T23:10:53.309Z,101307.69
2022-12-03T23:13:20.715Z,101315.44
2022-12-03T23:15:50.599Z,101306.72
2022-12-03T23:18:18.994Z,101310.06
2022-12-03T23:20:51.702Z,101307.69
2022-12-03T23:23:20.924Z,101306.09
2022-12-03T23:26:02.176Z,101307.34
2022-12-03T23:28:30.325Z,101307.69
2022-12-03T23:30:57.612Z,101300.81
2022-12-03T23:33:25.440Z,101293.97
2022-12-03T23:35:52.187Z,101294.25
2022-12-03T23:38:19.024Z,101296.09
2022-12-03T23:40:48.457Z,101295.41
2022-12-03T23:43:15.845Z,101297.31
2022-12-03T23:45:42.643Z,101290.41
2022-12-03T23:48:09.373Z,101294.94
2022-12-03T23:50:39.610Z,101297.63
2022-12-03T23:53:06.384Z,101294.25
2022-12-03T23:55:33.693Z,101286.62
2022-12-03T23:58:03.676Z,101291.91
